Terminal Aerodrome Forecast
Issued by NWS Blacksburg, VA

Current Version | Previous Version | Text Only | Print | Product List | Glossary On
Versions: 1 2 3 4 5 6 7 8 9 10 11 12 13 14 15 16 17 18 19 20 21 22 23 24 25 26 27 28 29 30 31 32 33 34 35 36 37 38 39 40
000
FTUS41 KRNK 191730
TAFBLF
TAF
KBLF 191730Z 1918/2018 13012G22KT 6SM -RA BR OVC012
     FM192100 12015G30KT 3SM -SHRA OVC009
     FM200400 19010KT P6SM OVC007
     FM200800 23008KT P6SM OVC005
     FM200900 18009G15KT P6SM BKN015
     FM201400 20011G18KT P6SM SHRA BKN025 OVC050=

USA.gov is the U.S. government's official web portal to all federal, state and local government web resources and services.